createdAt,value
2022-11-12T00:00:33.916Z,6.5
2022-11-12T00:01:34.036Z,7.14286
2022-11-12T00:02:33.971Z,6.21429
2022-11-12T00:03:34.017Z,7
2022-11-12T00:04:34.026Z,6.71429
2022-11-12T00:05:34.078Z,6.85714
2022-11-12T00:06:34.169Z,6.64286
2022-11-12T00:07:34.119Z,6
2022-11-12T00:08:34.152Z,6.64286
2022-11-12T00:09:34.188Z,6.21429
2022-11-12T00:10:34.244Z,6.5
2022-11-12T00:11:34.255Z,6.14286
2022-11-12T00:12:34.293Z,6.35714
2022-11-12T00:13:34.317Z,6.21429
2022-11-12T00:14:34.359Z,6
2022-11-12T00:15:34.410Z,6.5
2022-11-12T00:16:34.431Z,6.14286
2022-11-12T00:17:34.484Z,5.92857
2022-11-12T00:18:34.493Z,5.92857
2022-11-12T00:19:34.529Z,6.42857
2022-11-12T00:20:34.564Z,6
2022-11-12T00:21:34.611Z,6.35714
2022-11-12T00:22:34.625Z,5.85714
2022-11-12T00:23:34.658Z,6.14286
2022-11-12T00:24:34.704Z,6.21429
2022-11-12T00:25:34.720Z,6.21429
2022-11-12T00:26:34.757Z,6.35714
2022-11-12T00:27:34.791Z,6
2022-11-12T00:28:37.502Z,6.21429
2022-11-12T00:29:34.856Z,5.85714
2022-11-12T00:30:34.906Z,6.14286
2022-11-12T00:31:34.915Z,6
2022-11-12T00:32:34.950Z,6
2022-11-12T00:33:34.985Z,5.85714
2022-11-12T00:34:35.020Z,6.64286
2022-11-12T00:35:35.072Z,5.92857
2022-11-12T00:36:35.094Z,5.64286
2022-11-12T00:37:35.132Z,6.14286
2022-11-12T00:38:35.166Z,5.92857
2022-11-12T00:39:35.198Z,6.14286
2022-11-12T00:40:35.259Z,5.92857
2022-11-12T00:41:35.274Z,5.64286
2022-11-12T00:42:35.301Z,5.92857
2022-11-12T00:43:35.364Z,6
2022-11-12T00:44:35.375Z,6
2022-11-12T00:45:35.413Z,5.71429
2022-11-12T00:46:35.452Z,5.92857
2022-11-12T00:47:35.480Z,5.35714
2022-11-12T00:48:35.531Z,5.42857
2022-11-12T00:49:35.535Z,5.42857
2022-11-12T00:50:35.563Z,5
2022-11-12T00:51:35.598Z,5
2022-11-12T00:52:35.633Z,5.21429
2022-11-12T00:53:35.692Z,4.64286
2022-11-12T00:54:35.701Z,4.5
2022-11-12T00:55:35.730Z,4.71429
2022-11-12T00:56:35.854Z,4.64286
2022-11-12T00:57:35.787Z,5.42857
2022-11-12T00:58:35.836Z,5.21429
2022-11-12T00:59:35.865Z,5
2022-11-12T01:00:36.000Z,5.14286
2022-11-12T01:01:35.937Z,4.64286
2022-11-12T01:02:42.384Z,5.14286
2022-11-12T01:03:36.051Z,5
2022-11-12T01:04:36.033Z,4.85714
2022-11-12T01:05:36.053Z,5.35714
2022-11-12T01:06:36.137Z,4.71429
2022-11-12T01:07:36.117Z,4.42857
2022-11-12T01:08:36.156Z,4.64286
2022-11-12T01:09:36.196Z,4.71429
2022-11-12T01:10:36.247Z,4.21429
2022-11-12T01:11:36.276Z,4.5
2022-11-12T01:12:36.282Z,4.42857
2022-11-12T01:13:41.332Z,4.21429
2022-11-12T01:14:36.347Z,4.64286
2022-11-12T01:15:36.375Z,4.42857
2022-11-12T01:16:36.420Z,4.64286
2022-11-12T01:17:36.436Z,4.5
2022-11-12T01:18:36.458Z,4.42857
2022-11-12T01:19:36.481Z,4.14286
2022-11-12T01:20:36.511Z,4.64286
2022-11-12T01:21:36.571Z,4.64286
2022-11-12T01:22:36.575Z,4.21429
2022-11-12T01:23:36.612Z,4.5
2022-11-12T01:24:36.646Z,4.92857
2022-11-12T01:25:36.680Z,4.35714
2022-11-12T01:26:36.722Z,4.35714
2022-11-12T01:27:36.760Z,4.5
2022-11-12T01:28:36.761Z,4.21429
2022-11-12T01:29:36.793Z,4.92857
2022-11-12T01:30:36.851Z,5.21429
2022-11-12T01:31:36.859Z,4.71429
2022-11-12T01:32:36.892Z,5.64286
2022-11-12T01:33:36.923Z,5.71429
2022-11-12T01:34:36.974Z,5.92857
2022-11-12T01:35:36.980Z,6
2022-11-12T01:36:37.014Z,5.92857
2022-11-12T01:37:37.038Z,5.64286
2022-11-12T01:38:37.067Z,6
2022-11-12T01:39:37.110Z,5.71429
2022-11-12T01:40:37.119Z,5.92857
2022-11-12T01:41:37.153Z,5.35714
2022-11-12T01:42:37.186Z,5.14286
2022-11-12T01:43:37.245Z,5.35714
2022-11-12T01:44:37.255Z,4.92857
2022-11-12T01:45:37.287Z,5.14286
2022-11-12T01:46:37.317Z,4.92857
2022-11-12T01:47:37.373Z,5.14286
2022-11-12T01:48:37.392Z,4.85714
2022-11-12T01:49:37.398Z,4.92857
2022-11-12T01:50:37.429Z,5.14286
2022-11-12T01:51:37.463Z,5.35714
2022-11-12T01:52:37.528Z,5.35714
2022-11-12T01:53:37.537Z,5.64286
2022-11-12T01:54:37.587Z,5.42857
2022-11-12T01:55:37.595Z,5.85714
2022-11-12T01:56:41.762Z,5.64286
2022-11-12T01:57:37.663Z,5.64286
2022-11-12T01:58:37.702Z,5.71429
2022-11-12T01:59:37.760Z,5.71429
2022-11-12T02:00:37.769Z,5.64286
2022-11-12T02:01:37.852Z,5.64286
2022-11-12T02:02:37.843Z,6.21429
2022-11-12T02:03:37.896Z,5.92857
2022-11-12T02:04:37.909Z,5.64286
2022-11-12T02:05:37.940Z,5.85714
2022-11-12T02:06:38.027Z,5.5
2022-11-12T02:07:38.011Z,5.5
2022-11-12T02:08:38.065Z,6.14286
2022-11-12T02:09:38.099Z,6.35714
2022-11-12T02:10:38.111Z,5.42857
2022-11-12T02:11:38.143Z,5.85714
2022-11-12T02:12:38.177Z,5.64286
2022-11-12T02:13:38.211Z,5.5
2022-11-12T02:14:38.244Z,5.5
2022-11-12T02:15:38.296Z,5.64286
2022-11-12T02:16:38.336Z,4.92857
2022-11-12T02:17:38.332Z,5.42857
2022-11-12T02:18:38.359Z,5.14286
2022-11-12T02:19:38.399Z,5
2022-11-12T02:20:38.428Z,5.5
2022-11-12T02:21:38.482Z,5.35714
2022-11-12T02:22:38.497Z,5.42857
2022-11-12T02:23:38.527Z,5.5
2022-11-12T02:24:38.585Z,5.35714
2022-11-12T02:25:38.589Z,5.92857
2022-11-12T02:26:38.642Z,5.21429
2022-11-12T02:27:38.650Z,5.71429
2022-11-12T02:28:38.686Z,5.21429
2022-11-12T02:29:38.737Z,5.14286
2022-11-12T02:30:38.773Z,5
2022-11-12T02:31:38.814Z,4.92857
2022-11-12T02:32:38.825Z,5.35714
2022-11-12T02:33:38.862Z,5.64286
2022-11-12T02:34:38.900Z,5.21429
2022-11-12T02:35:38.926Z,5
2022-11-12T02:36:38.976Z,6.14286
2022-11-12T02:37:38.986Z,6
2022-11-12T02:38:39.026Z,5.64286
2022-11-12T02:39:39.066Z,5.42857
2022-11-12T02:40:39.097Z,5.85714
2022-11-12T02:41:39.154Z,5.85714
2022-11-12T02:42:39.191Z,6.42857
2022-11-12T02:43:39.205Z,5.85714
2022-11-12T02:44:39.263Z,5.85714
2022-11-12T02:45:39.267Z,6.35714
2022-11-12T02:46:39.302Z,6.71429
2022-11-12T02:47:39.325Z,6.14286
2022-11-12T02:48:39.357Z,5.71429
2022-11-12T02:49:39.410Z,5.64286
2022-11-12T02:50:39.423Z,5.92857
2022-11-12T02:51:39.455Z,6.35714
2022-11-12T02:52:39.482Z,6.35714
2022-11-12T02:53:39.519Z,5.92857
2022-11-12T02:54:39.567Z,5.71429
2022-11-12T02:55:39.584Z,6
2022-11-12T02:56:39.628Z,6.5
2022-11-12T02:57:39.653Z,6.35714
2022-11-12T02:58:39.700Z,5.92857
2022-11-12T02:59:39.716Z,5.92857
2022-11-12T03:00:39.766Z,6.21429
2022-11-12T03:01:39.808Z,5.85714
2022-11-12T03:02:39.830Z,5.71429
2022-11-12T03:03:39.857Z,5.85714
2022-11-12T03:04:39.895Z,5.64286
2022-11-12T03:05:39.950Z,6.14286
2022-11-12T03:06:40.061Z,6.35714
2022-11-12T03:07:40.012Z,5.64286
2022-11-12T03:08:40.057Z,5.71429
2022-11-12T03:09:40.072Z,5.92857
2022-11-12T03:10:40.101Z,5.5
2022-11-12T03:11:40.141Z,5.85714
2022-11-12T03:12:40.174Z,5.71429
2022-11-12T03:13:40.231Z,6
2022-11-12T03:14:40.236Z,6
2022-11-12T03:15:40.296Z,5.21429
2022-11-12T03:16:40.305Z,5.5
2022-11-12T03:17:40.345Z,5.64286
2022-11-12T03:18:40.379Z,5.21429
2022-11-12T03:19:40.410Z,5.5
2022-11-12T03:20:40.468Z,5
2022-11-12T03:21:40.486Z,5.64286
2022-11-12T03:22:40.508Z,5
2022-11-12T03:23:40.535Z,5.21429
2022-11-12T03:24:40.573Z,4.85714
2022-11-12T03:25:40.638Z,4.71429
2022-11-12T03:26:40.653Z,5.14286
2022-11-12T03:27:40.685Z,5
2022-11-12T03:28:40.728Z,4.71429
2022-11-12T03:29:40.744Z,4.64286
2022-11-12T03:30:40.781Z,4.92857
2022-11-12T03:31:40.816Z,4.85714
2022-11-12T03:32:40.868Z,4.64286
2022-11-12T03:33:40.879Z,5.21429
2022-11-12T03:34:40.915Z,4.92857
2022-11-12T03:35:40.947Z,4.92857
2022-11-12T03:36:40.981Z,5.35714
2022-11-12T03:37:41.048Z,5.21429
2022-11-12T03:38:41.054Z,5
2022-11-12T03:39:41.083Z,4.92857
2022-11-12T03:40:41.113Z,4.5
2022-11-12T03:41:41.145Z,4.71429
2022-11-12T03:42:41.194Z,4.64286
2022-11-12T03:43:41.209Z,5
2022-11-12T03:44:41.240Z,4.71429
2022-11-12T03:45:41.294Z,4.92857
2022-11-12T03:46:44.224Z,4.64286
2022-11-12T03:47:41.338Z,4.71429
2022-11-12T03:48:41.364Z,4.5
2022-11-12T03:49:41.404Z,4.71429
2022-11-12T03:50:41.465Z,4.92857
2022-11-12T03:51:41.493Z,5.14286
2022-11-12T03:52:41.516Z,4.71429
2022-11-12T03:53:41.541Z,4.14286
2022-11-12T03:54:41.591Z,4.64286
2022-11-12T03:55:41.603Z,5
2022-11-12T03:56:41.668Z,4.71429
2022-11-12T03:57:41.664Z,4.85714
2022-11-12T03:58:41.711Z,4.5
2022-11-12T03:59:41.746Z,4.42857
2022-11-12T04:00:41.776Z,4.92857
2022-11-12T04:01:41.797Z,5
2022-11-12T04:02:41.821Z,4.5
2022-11-12T04:03:41.854Z,4.64286
2022-11-12T04:04:41.908Z,4.71429
2022-11-12T04:05:41.925Z,4.64286
2022-11-12T04:06:42.038Z,4.42857
2022-11-12T04:07:41.991Z,4.42857
2022-11-12T04:08:42.021Z,4.92857
2022-11-12T04:09:42.056Z,5.35714
2022-11-12T04:10:42.106Z,5.42857
2022-11-12T04:11:42.144Z,6
2022-11-12T04:12:42.161Z,5
2022-11-12T04:13:42.219Z,4.71429
2022-11-12T04:14:42.234Z,4.71429
2022-11-12T04:15:42.272Z,5.14286
2022-11-12T04:16:42.288Z,5.14286
2022-11-12T04:17:42.318Z,5.21429
2022-11-12T04:18:42.377Z,4.92857
2022-11-12T04:19:42.414Z,5
2022-11-12T04:20:42.423Z,5
2022-11-12T04:21:42.469Z,4.92857
2022-11-12T04:22:42.494Z,5
2022-11-12T04:23:42.536Z,5
2022-11-12T04:24:42.588Z,5.64286
2022-11-12T04:25:42.610Z,5
2022-11-12T04:26:42.644Z,4.85714
2022-11-12T04:27:42.659Z,4.85714
2022-11-12T04:28:42.709Z,5.14286
2022-11-12T04:29:42.731Z,4.85714
2022-11-12T04:30:42.773Z,5
2022-11-12T04:31:42.783Z,4.92857
2022-11-12T04:32:42.809Z,4.85714
2022-11-12T04:33:42.867Z,4.64286
2022-11-12T04:34:42.939Z,5
2022-11-12T04:35:42.917Z,4.85714
2022-11-12T04:36:42.970Z,4.64286
2022-11-12T04:37:42.997Z,4.85714
2022-11-12T04:38:43.010Z,5
2022-11-12T04:39:43.048Z,5
2022-11-12T04:40:43.076Z,5
2022-11-12T04:41:43.133Z,4.71429
2022-11-12T04:42:43.148Z,4.71429
2022-11-12T04:43:43.174Z,4.5
2022-11-12T04:44:43.202Z,4.71429
2022-11-12T04:45:43.281Z,4.64286
2022-11-12T04:46:43.271Z,4.21429
2022-11-12T04:47:43.292Z,4.35714
2022-11-12T04:48:43.330Z,4.21429
2022-11-12T04:49:43.365Z,4.64286
2022-11-12T04:50:43.419Z,4.64286
2022-11-12T04:51:43.433Z,4.64286
2022-11-12T04:52:43.459Z,4.85714
2022-11-12T04:53:43.486Z,4.64286
2022-11-12T04:54:43.515Z,4.64286
2022-11-12T04:55:43.567Z,4.64286
2022-11-12T04:56:43.576Z,4.85714
2022-11-12T04:57:43.611Z,5
2022-11-12T04:58:43.638Z,5
2022-11-12T04:59:43.671Z,4.85714
2022-11-12T05:00:43.724Z,5
2022-11-12T05:01:43.829Z,4.21429
2022-11-12T05:02:43.796Z,4.5
2022-11-12T05:03:43.804Z,4.5
2022-11-12T05:04:43.839Z,4.21429
2022-11-12T05:05:43.870Z,4.21429
2022-11-12T05:06:43.985Z,4.64286
2022-11-12T05:07:43.928Z,4.64286
2022-11-12T05:08:43.968Z,4.71429
2022-11-12T05:09:43.998Z,4.42857
2022-11-12T05:10:44.032Z,4.21429
2022-11-12T05:11:44.088Z,4.42857
2022-11-12T05:12:44.126Z,3.85714
2022-11-12T05:13:44.130Z,4.71429
2022-11-12T05:14:44.185Z,4.42857
2022-11-12T05:15:44.202Z,4.5
2022-11-12T05:16:44.230Z,4
2022-11-12T05:17:44.285Z,4.21429
2022-11-12T05:18:44.291Z,4.42857
2022-11-12T05:19:44.320Z,4.5
2022-11-12T05:20:44.353Z,4.42857
2022-11-12T05:21:44.381Z,4.64286
2022-11-12T05:22:54.347Z,4.71429
2022-11-12T05:23:44.447Z,5
2022-11-12T05:24:44.482Z,5
2022-11-12T05:25:44.513Z,4.85714
2022-11-12T05:26:44.552Z,4.5
2022-11-12T05:27:44.595Z,4.5
2022-11-12T05:28:44.625Z,4.21429
2022-11-12T05:29:44.632Z,4
2022-11-12T05:30:44.664Z,4.42857
2022-11-12T05:31:44.701Z,4.21429
2022-11-12T05:32:44.738Z,4.5
2022-11-12T05:33:44.792Z,4.14286
2022-11-12T05:34:44.796Z,4
2022-11-12T05:35:44.832Z,4.5
2022-11-12T05:36:44.862Z,4.14286
2022-11-12T05:37:44.892Z,4
2022-11-12T05:38:44.942Z,4.21429
2022-11-12T05:39:44.958Z,4.71429
2022-11-12T05:40:44.990Z,3.85714
2022-11-12T05:42:05.814Z,4.14286
2022-11-12T05:42:45.059Z,4.21429
2022-11-12T05:43:45.091Z,3.85714
2022-11-12T05:44:45.146Z,4.21429
2022-11-12T05:45:45.149Z,3.92857
2022-11-12T05:46:45.193Z,4.21429
2022-11-12T05:47:45.230Z,3.92857
2022-11-12T05:48:45.258Z,3.85714
2022-11-12T05:49:45.309Z,4.35714
2022-11-12T05:51:11.294Z,4.14286
2022-11-12T05:51:45.359Z,4
2022-11-12T05:52:45.388Z,3.71429
2022-11-12T05:53:45.426Z,3.85714
2022-11-12T05:54:45.469Z,4.14286
2022-11-12T05:55:45.481Z,3.71429
2022-11-12T05:56:45.515Z,4
2022-11-12T05:57:45.547Z,3.92857
2022-11-12T05:58:45.578Z,4.35714
2022-11-12T05:59:45.610Z,4.21429
2022-11-12T06:00:45.643Z,3.92857
2022-11-12T06:01:45.671Z,3.64286
2022-11-12T06:02:45.783Z,3.71429
2022-11-12T06:03:45.729Z,4.14286
2022-11-12T06:04:45.759Z,3.64286
2022-11-12T06:05:45.792Z,3.85714
2022-11-12T06:06:45.883Z,3.71429
2022-11-12T06:07:45.846Z,3.71429
2022-11-12T06:08:45.875Z,4.42857
2022-11-12T06:09:45.898Z,4
2022-11-12T06:10:45.924Z,3.92857
2022-11-12T06:11:45.960Z,3.85714
2022-11-12T06:12:45.987Z,4
2022-11-12T06:13:46.013Z,3.71429
2022-11-12T06:14:46.050Z,3.42857
2022-11-12T06:15:46.073Z,3.92857
2022-11-12T06:16:46.108Z,3.85714
2022-11-12T06:17:46.146Z,3.85714
2022-11-12T06:18:46.165Z,4.14286
2022-11-12T06:19:46.195Z,3.92857
2022-11-12T06:20:46.223Z,4.64286
2022-11-12T06:21:46.255Z,4.14286
2022-11-12T06:22:46.285Z,3.5
2022-11-12T06:23:46.320Z,4.14286
2022-11-12T06:24:46.357Z,4
2022-11-12T06:25:46.390Z,3.71429
2022-11-12T06:26:46.430Z,4.14286
2022-11-12T06:27:46.467Z,3.71429
2022-11-12T06:28:46.574Z,4.35714
2022-11-12T06:29:46.534Z,4.14286
2022-11-12T06:30:46.576Z,4.35714
2022-11-12T06:31:46.604Z,3.92857
2022-11-12T06:32:46.634Z,3.71429
2022-11-12T06:33:46.659Z,4.14286
2022-11-12T06:34:46.693Z,3.85714
2022-11-12T06:35:46.723Z,4
2022-11-12T06:36:46.748Z,3.85714
2022-11-12T06:37:46.782Z,3.71429
2022-11-12T06:38:46.811Z,4
2022-11-12T06:39:46.852Z,3.85714
2022-11-12T06:40:46.873Z,4
2022-11-12T06:41:46.907Z,3.92857
2022-11-12T06:42:46.944Z,3.64286
2022-11-12T06:43:46.976Z,3.85714
2022-11-12T06:44:47.007Z,4
2022-11-12T06:45:47.044Z,4.42857
2022-11-12T06:46:47.077Z,3.85714
2022-11-12T06:47:47.105Z,4.14286
2022-11-12T06:48:47.143Z,4
2022-11-12T06:49:47.165Z,4.5
2022-11-12T06:50:47.196Z,3.92857
2022-11-12T06:51:47.233Z,4.42857
2022-11-12T06:52:47.262Z,4.35714
2022-11-12T06:53:47.300Z,4.14286
2022-11-12T06:54:47.329Z,4.42857
2022-11-12T06:55:47.364Z,4.35714
2022-11-12T06:56:47.395Z,4.35714
2022-11-12T06:57:47.435Z,4.14286
2022-11-12T06:58:47.471Z,3.85714
2022-11-12T06:59:47.502Z,3.92857
2022-11-12T07:00:47.536Z,3.5
2022-11-12T07:01:47.631Z,4.85714
2022-11-12T07:02:47.605Z,4.64286
2022-11-12T07:03:47.629Z,4.35714
2022-11-12T07:04:47.659Z,4.64286
2022-11-12T07:05:47.681Z,4.5
2022-11-12T07:06:47.751Z,4.21429
2022-11-12T07:07:47.748Z,4.85714
2022-11-12T07:08:47.771Z,3.92857
2022-11-12T07:09:47.800Z,4.5
2022-11-12T07:10:47.838Z,4.64286
2022-11-12T07:11:47.862Z,3.85714
2022-11-12T07:12:53.018Z,5
2022-11-12T07:13:47.931Z,4.14286
2022-11-12T07:14:47.960Z,4.64286
2022-11-12T07:15:47.988Z,4.64286
2022-11-12T07:16:48.027Z,5.14286
2022-11-12T07:17:48.062Z,4.5
2022-11-12T07:18:48.094Z,4.64286
2022-11-12T07:19:48.116Z,4.92857
2022-11-12T07:20:48.157Z,4.92857
2022-11-12T07:21:48.187Z,4.85714
2022-11-12T07:22:48.213Z,4.42857
2022-11-12T07:23:48.235Z,4.14286
2022-11-12T07:24:48.270Z,4.35714
2022-11-12T07:25:48.308Z,4.42857
2022-11-12T07:26:48.331Z,4.5
2022-11-12T07:27:48.360Z,4.5
2022-11-12T07:28:48.393Z,4.64286
2022-11-12T07:29:48.938Z,5
2022-11-12T07:30:48.452Z,4.92857
2022-11-12T07:31:48.482Z,4.85714
2022-11-12T07:32:51.768Z,4.5
2022-11-12T07:33:48.542Z,4.85714
2022-11-12T07:34:48.566Z,5
2022-11-12T07:35:48.593Z,4.71429
2022-11-12T07:36:48.619Z,5.85714
2022-11-12T07:37:48.651Z,6.71429
2022-11-12T07:38:48.685Z,6.35714
2022-11-12T07:39:48.719Z,5.85714
2022-11-12T07:40:48.750Z,4.92857
2022-11-12T07:41:48.791Z,4.85714
2022-11-12T07:42:48.822Z,5.14286
2022-11-12T07:43:48.856Z,4.5
2022-11-12T07:44:48.879Z,4.21429
2022-11-12T07:45:48.924Z,4.14286
2022-11-12T07:46:48.952Z,4.35714
2022-11-12T07:47:48.987Z,4.21429
2022-11-12T07:48:49.017Z,4.42857
2022-11-12T07:49:49.054Z,3.92857
2022-11-12T07:50:49.104Z,4.14286
2022-11-12T07:51:49.115Z,4.35714
2022-11-12T07:52:49.145Z,4.14286
2022-11-12T07:53:49.177Z,4
2022-11-12T07:54:49.215Z,3.92857
2022-11-12T07:55:49.248Z,4.35714
2022-11-12T07:56:49.285Z,4.21429
2022-11-12T07:57:49.320Z,4.35714
2022-11-12T07:58:49.358Z,4.71429
2022-11-12T07:59:49.388Z,4.35714
2022-11-12T08:00:49.425Z,3.92857
2022-11-12T08:01:49.494Z,4.21429
2022-11-12T08:02:49.486Z,4.21429
2022-11-12T08:03:49.524Z,4.5
2022-11-12T08:04:49.560Z,4
2022-11-12T08:05:49.591Z,4.14286
2022-11-12T08:06:49.695Z,4.42857
2022-11-12T08:07:49.817Z,4.64286
2022-11-12T08:08:49.674Z,4.35714
2022-11-12T08:09:49.698Z,4.14286
2022-11-12T08:10:49.730Z,4.64286
2022-11-12T08:11:49.770Z,4.71429
2022-11-12T08:12:49.792Z,4.92857
2022-11-12T08:13:49.824Z,4.71429
2022-11-12T08:14:49.853Z,4.64286
2022-11-12T08:15:52.340Z,4.64286
2022-11-12T08:16:49.913Z,4.5
2022-11-12T08:17:49.944Z,4.71429
2022-11-12T08:18:49.983Z,4.71429
2022-11-12T08:19:50.028Z,4.71429
2022-11-12T08:20:50.059Z,5.14286
2022-11-12T08:21:50.089Z,5.42857
2022-11-12T08:22:50.124Z,5
2022-11-12T08:23:50.163Z,5
2022-11-12T08:24:50.188Z,4.92857
2022-11-12T08:25:50.229Z,5.42857
2022-11-12T08:26:50.251Z,5.14286
2022-11-12T08:27:50.289Z,4.64286
2022-11-12T08:28:50.342Z,5.42857
2022-11-12T08:29:50.352Z,5.42857
2022-11-12T08:30:50.382Z,5
2022-11-12T08:31:50.418Z,5.14286
2022-11-12T08:32:50.446Z,5.64286
2022-11-12T08:33:50.485Z,5.14286
2022-11-12T08:34:50.503Z,4.92857
2022-11-12T08:35:50.537Z,5.14286
2022-11-12T08:36:50.570Z,5.21429
2022-11-12T08:37:50.594Z,5
2022-11-12T08:38:50.625Z,5.71429
2022-11-12T08:39:50.648Z,5.64286
2022-11-12T08:40:50.674Z,5.42857
2022-11-12T08:41:50.699Z,5.71429
2022-11-12T08:42:50.731Z,5
2022-11-12T08:43:50.767Z,5.35714
2022-11-12T08:44:50.793Z,5.42857
2022-11-12T08:45:50.827Z,6.21429
2022-11-12T08:46:50.855Z,5.92857
2022-11-12T08:47:50.885Z,6.35714
2022-11-12T08:48:50.915Z,6.71429
2022-11-12T08:49:50.939Z,5.71429
2022-11-12T08:50:50.969Z,5.85714
2022-11-12T08:51:51.000Z,5.64286
2022-11-12T08:52:51.042Z,5.85714
2022-11-12T08:53:51.065Z,5.92857
2022-11-12T08:54:51.085Z,5.64286
2022-11-12T08:55:51.112Z,6.35714
2022-11-12T08:56:51.148Z,5.85714
2022-11-12T08:57:51.183Z,5.71429
2022-11-12T08:58:51.216Z,5.85714
2022-11-12T08:59:51.234Z,5.92857
2022-11-12T09:00:51.271Z,5.64286
2022-11-12T09:01:51.339Z,6.42857
2022-11-12T09:02:51.341Z,6.35714
2022-11-12T09:03:51.371Z,6.14286
2022-11-12T09:04:51.395Z,5.85714
2022-11-12T09:05:51.431Z,6.42857
2022-11-12T09:06:54.017Z,5.92857
2022-11-12T09:07:51.555Z,5.71429
2022-11-12T09:08:51.513Z,5.85714
2022-11-12T09:09:51.542Z,5.92857
2022-11-12T09:10:51.574Z,6
2022-11-12T09:11:51.605Z,6.35714
2022-11-12T09:12:51.633Z,6.42857
2022-11-12T09:13:51.768Z,5.42857
2022-11-12T09:14:56.089Z,5.92857
2022-11-12T09:15:51.722Z,6.42857
2022-11-12T09:16:51.747Z,5.92857
2022-11-12T09:17:51.779Z,5.85714
2022-11-12T09:18:51.838Z,5.85714
2022-11-12T09:19:51.847Z,6
2022-11-12T09:20:51.873Z,6.14286
2022-11-12T09:21:51.909Z,6.35714
2022-11-12T09:22:51.950Z,5.85714
2022-11-12T09:23:51.986Z,6.21429
2022-11-12T09:24:52.014Z,6.14286
2022-11-12T09:25:52.048Z,5.85714
2022-11-12T09:26:52.076Z,6.14286
2022-11-12T09:27:52.124Z,6.14286
2022-11-12T09:28:52.135Z,6.42857
2022-11-12T09:29:52.164Z,6.42857
2022-11-12T09:30:52.197Z,6.35714
2022-11-12T09:31:52.228Z,6
2022-11-12T09:32:52.258Z,6.92857
2022-11-12T09:33:52.291Z,6
2022-11-12T09:34:52.325Z,6.42857
2022-11-12T09:35:52.350Z,6.21429
2022-11-12T09:36:52.386Z,6.64286
2022-11-12T09:37:52.418Z,6.71429
2022-11-12T09:38:52.448Z,6.5
2022-11-12T09:39:52.495Z,6.71429
2022-11-12T09:40:52.535Z,7.42857
2022-11-12T09:41:55.497Z,7.42857
2022-11-12T09:42:52.580Z,7.14286
2022-11-12T09:43:52.605Z,7.85714
2022-11-12T09:44:52.637Z,7.85714
2022-11-12T09:46:06.929Z,8.14286
2022-11-12T09:46:52.709Z,8.42857
2022-11-12T09:47:52.736Z,7.85714
2022-11-12T09:48:52.771Z,7.85714
2022-11-12T09:49:52.791Z,9
2022-11-12T09:50:52.817Z,8.64286
2022-11-12T09:51:52.845Z,8.35714
2022-11-12T09:52:52.872Z,8.5
2022-11-12T09:53:52.906Z,8.35714
2022-11-12T09:54:52.937Z,8.14286
2022-11-12T09:55:52.973Z,8.14286
2022-11-12T09:56:53.004Z,9.14286
2022-11-12T09:57:53.040Z,8.71429
2022-11-12T09:58:53.067Z,9.64286
2022-11-12T09:59:53.097Z,9.35714
2022-11-12T10:00:53.127Z,9.64286
2022-11-12T10:01:53.168Z,10
2022-11-12T10:02:53.188Z,10.2143
2022-11-12T10:03:53.224Z,10.4286
2022-11-12T10:04:53.254Z,10.2143
2022-11-12T10:05:53.286Z,11.1429
2022-11-12T10:06:53.367Z,9.92857
2022-11-12T10:07:53.357Z,10.9286
2022-11-12T10:08:53.379Z,10
2022-11-12T10:09:53.397Z,10.6429
2022-11-12T10:10:53.433Z,10.9286
2022-11-12T10:11:53.468Z,10.4286
2022-11-12T10:12:53.558Z,11.5
2022-11-12T10:13:53.528Z,10.6429
2022-11-12T10:14:53.558Z,11.2143
2022-11-12T10:15:53.581Z,12.4286
2022-11-12T10:16:53.609Z,11.9286
2022-11-12T10:17:53.639Z,12.5
2022-11-12T10:18:53.666Z,12.9286
2022-11-12T10:19:53.708Z,12.1429
2022-11-12T10:20:53.718Z,12.6429
2022-11-12T10:21:53.751Z,13.5
2022-11-12T10:22:53.776Z,13.3571
2022-11-12T10:23:53.805Z,12.6429
2022-11-12T10:24:53.839Z,13.4286
2022-11-12T10:25:53.868Z,14
2022-11-12T10:26:53.901Z,14.1429
2022-11-12T10:27:53.929Z,14.6429
2022-11-12T10:28:53.967Z,13.8571
2022-11-12T10:29:54.003Z,14
2022-11-12T10:30:54.034Z,14.6429
2022-11-12T10:31:54.056Z,14.8571
2022-11-12T10:32:54.084Z,14.8571
2022-11-12T10:33:54.115Z,14.7143
2022-11-12T10:34:54.151Z,15.4286
2022-11-12T10:35:54.180Z,14.3571
2022-11-12T10:36:55.593Z,15.1429
2022-11-12T10:37:54.242Z,14.7143
2022-11-12T10:38:54.269Z,14.3571
2022-11-12T10:39:54.299Z,14.4286
2022-11-12T10:40:54.339Z,14.5
2022-11-12T10:41:54.379Z,14.4286
2022-11-12T10:42:54.411Z,15.4286
2022-11-12T10:43:54.451Z,14.8571
2022-11-12T10:44:54.491Z,14.6429
2022-11-12T10:45:54.518Z,14.4286
2022-11-12T10:46:54.550Z,15.2143
2022-11-12T10:47:54.583Z,16.1429
2022-11-12T10:48:54.621Z,16.2143
2022-11-12T10:49:54.647Z,15.5
2022-11-12T10:50:54.674Z,15.5
2022-11-12T10:51:54.700Z,15.2143
2022-11-12T10:52:54.731Z,15.2143
2022-11-12T10:53:54.764Z,15
2022-11-12T10:54:55.290Z,15.1429
2022-11-12T10:55:54.818Z,14.6429
2022-11-12T10:56:55.742Z,13.9286
2022-11-12T10:57:54.867Z,14.2143
2022-11-12T10:58:54.900Z,14.1429
2022-11-12T10:59:54.921Z,13.6429
2022-11-12T11:00:54.954Z,13.9286
2022-11-12T11:01:55.033Z,13.3571
2022-11-12T11:02:55.023Z,14.3571
2022-11-12T11:03:55.055Z,13.7143
2022-11-12T11:04:55.078Z,14.5
2022-11-12T11:05:55.106Z,13.6429
2022-11-12T11:06:55.220Z,14.9286
2022-11-12T11:07:55.178Z,15
2022-11-12T11:08:55.211Z,14.5
2022-11-12T11:09:55.238Z,14.5
2022-11-12T11:10:55.266Z,15.1429
2022-11-12T11:11:55.297Z,14.6429
2022-11-12T11:12:55.326Z,13.6429
2022-11-12T11:13:55.915Z,13.7143
2022-11-12T11:14:55.379Z,14.3571
2022-11-12T11:15:55.410Z,13.8571
2022-11-12T11:16:55.436Z,13.9286
2022-11-12T11:17:55.462Z,14.9286
2022-11-12T11:18:55.495Z,15.7143
2022-11-12T11:19:55.520Z,15.3571
2022-11-12T11:20:55.548Z,14.9286
2022-11-12T11:21:55.586Z,14.9286
2022-11-12T11:22:55.601Z,14.8571
2022-11-12T11:23:55.636Z,15.2143
2022-11-12T11:24:55.661Z,14.2143
2022-11-12T11:25:55.700Z,14.5
2022-11-12T11:26:55.727Z,15
2022-11-12T11:27:55.758Z,14.9286
2022-11-12T11:28:55.788Z,14.6429
2022-11-12T11:29:55.818Z,15.7143
2022-11-12T11:30:55.847Z,16.3571
2022-11-12T11:31:55.872Z,16.2143
2022-11-12T11:32:55.905Z,15.5
2022-11-12T11:33:55.940Z,16.7143
2022-11-12T11:34:55.966Z,16.2143
2022-11-12T11:35:56.002Z,16.4286
2022-11-12T11:36:56.036Z,16.6429
2022-11-12T11:37:58.416Z,16.8571
2022-11-12T11:38:56.091Z,16.4286
2022-11-12T11:39:56.115Z,15.2143
2022-11-12T11:40:56.154Z,17
2022-11-12T11:41:56.186Z,16.8571
2022-11-12T11:42:56.219Z,16.6429
2022-11-12T11:43:56.313Z,16.5
2022-11-12T11:44:56.279Z,17.4286
2022-11-12T11:45:56.314Z,18.6429
2022-11-12T11:46:56.341Z,17.4286
2022-11-12T11:48:01.537Z,16.6429
2022-11-12T11:48:56.398Z,17.1429
2022-11-12T11:49:56.427Z,17
2022-11-12T11:50:56.456Z,16.5
2022-11-12T11:51:56.487Z,16.4286
2022-11-12T11:52:56.513Z,16.1429
2022-11-12T11:53:56.542Z,14.9286
2022-11-12T11:54:56.576Z,15.1429
2022-11-12T11:55:56.599Z,15.1429
2022-11-12T11:56:56.624Z,15.2143
2022-11-12T11:57:56.658Z,14.9286
2022-11-12T11:58:56.688Z,14.5
2022-11-12T11:59:56.718Z,15.3571
2022-11-12T12:00:56.759Z,14.7143
2022-11-12T12:01:56.786Z,15.2143
2022-11-12T12:02:56.819Z,14.7143
2022-11-12T12:03:56.915Z,13.9286
2022-11-12T12:04:56.878Z,14.1429
2022-11-12T12:05:56.915Z,13.7143
2022-11-12T12:06:56.985Z,13.4286
2022-11-12T12:07:56.976Z,13.5
2022-11-12T12:08:56.997Z,12.9286
2022-11-12T12:09:57.020Z,9.35714
2022-11-12T12:11:08.516Z,9.85714
2022-11-12T12:11:57.082Z,8.5
2022-11-12T12:12:57.110Z,7.14286
2022-11-12T12:13:57.127Z,8.85714
2022-11-12T12:14:57.157Z,9.71429
2022-11-12T12:15:57.191Z,10
2022-11-12T12:16:57.227Z,9.42857
2022-11-12T12:17:57.258Z,9.21429
2022-11-12T12:18:57.280Z,7.71429
2022-11-12T12:19:57.310Z,7.14286
2022-11-12T12:20:57.363Z,8.42857
2022-11-12T12:21:57.392Z,10.5
2022-11-12T12:22:57.400Z,10.7143
2022-11-12T12:23:57.432Z,11.1429
2022-11-12T12:24:57.459Z,10.4286
2022-11-12T12:26:00.391Z,11.1429
2022-11-12T12:26:57.543Z,12.3571
2022-11-12T12:27:57.548Z,11.1429